Meteo Giornale » Osservazioni meteo Stati Uniti (USA) » Blythe
ore: 22:52 - Osservazioni Meteo Blythe
Lat. 33° 37' N Lon. 114° 43' W Alt. 121 metri s.l.m.
34 °C
Sereno
Temp. 24 Ore
30 °C
41 °C
Sud
25.9 Km/h
Dew point 15 °C
Umidità 32 %
Visibilità 10 Km
Il sole sorge alle ore 06:13
Il sole tramonta alle ore 19:04
| Data e Ora | Cielo e Fenomeni | T °C | DP °C | Um. % | Pres. hPa | Vis. km | Vento km/h | |
|---|---|---|---|---|---|---|---|---|
| Ieri h: 22:52 | Sereno | 34 | 15 | 32 | 1009 | 10 | S 25.9 | |
| Ieri h: 21:52 | Sereno | 32 | 17 | 40 | 1009 | 10 | SE 9.3 | |
| Ieri h: 20:52 | Sereno | 32 | 17 | 40 | 1008 | 10 | SE 11.1 | |
| Ieri h: 18:52 | Sereno | 33 | 17 | 38 | 1008 | 10 | E/SE 25.9 | |
| Ieri h: 17:52 | Foschia | 33 | 19 | 43 | 1007 | 10 | E 25.9 | |
| Ieri h: 16:52 | Nuvoloso | 34 | 18 | 38 | 1007 | 14 | E/NE 37 | |
| Ieri h: 16:50 | Nuvoloso | 34 | 18 | 38 | 1007 | 13 | E/NE 40.7 | |
| Ieri h: 16:41 | Foschia | 35 | 18 | 36 | 1007 | 10 | NE 48.1 | |
| Ieri h: 15:52 | Sereno | 41 | 9 | 14 | 1007 | 10 | S 24 | |
| Ieri h: 13:52 | Sereno | 39 | 12 | 20 | 1009 | 10 | S/SO 20.3 | |
| Ieri h: 12:52 | Sereno | 39 | 12 | 20 | 1009 | 10 | S/SO 31.5 | |
| Ieri h: 11:52 | Sereno | 39 | 7 | 14 | 1010 | 10 | S 25.9 | |
| Ieri h: 10:52 | Sereno | 38 | 6 | 14 | 1010 | 10 | S 27.8 | |
| Ieri h: 09:52 | Sereno | 37 | 6 | 14 | 1010 | 10 | S 24 | |
| Ieri h: 08:52 | Sereno | 34 | 4 | 15 | 1010 | 10 | S 25.9 | |
| Ieri h: 07:52 | Sereno | 31 | 8 | 23 | 1010 | 10 | S 18.5 | |
| Ieri h: 06:52 | Molto Nuvoloso | 30 | 7 | 23 | 1009 | 10 | S/SE 14.8 | |
| Ieri h: 05:52 | Sereno | 31 | 8 | 23 | 1008 | 10 | S 14.8 | |
| Ieri h: 04:52 | Nuvoloso | 32 | 7 | 21 | 1007 | 10 | S 18.5 | |
| Ieri h: 03:52 | Molto Nuvoloso | 31 | 9 | 25 | 1007 | 10 | S 16.7 | |
| Ieri h: 02:52 | Sereno | 32 | 9 | 24 | 1007 | 10 | S/SE 16.7 | |
| Ieri h: 01:52 | Sereno | 33 | 9 | 22 | 1007 | 10 | S 18.5 | |
| Ieri h: 00:52 | Sereno | 33 | 11 | 26 | 1007 | 10 | S 18.5 | |



